Time;durP1;ratioP1;P1;durP2;ratioP2;P2;SDS_P1;SDS_P2;PMS_P1;PMS_P2;Temp;Humidity;BMP_temperature;BMP_pressure;BME280_temperature;BME280_humidity;BME280_pressure;Samples;Min_cycle;Max_cycle;Signal;HPM_P1;HPM_P2
2022/09/10 00:01:45;;;;;;;;;3.75;3.75;;;;;17.23;67.69;100783.59;5012371;28;45437;-68
2022/09/10 00:04:12;;;;;;;;;4.25;4.00;;;;;17.32;67.54;100801.50;5013082;28;45673;-67
2022/09/10 00:06:38;;;;;;;;;4.60;4.60;;;;;17.28;67.94;100785.63;4964178;28;47162;-67
2022/09/10 00:09:04;;;;;;;;;5.50;4.00;;;;;17.34;67.11;100792.91;5008834;28;45236;-68
2022/09/10 00:11:30;;;;;;;;;3.00;1.50;;;;;17.30;67.68;100787.03;5014547;28;45259;-69
2022/09/10 00:13:57;;;;;;;;;4.60;3.20;;;;;17.16;67.54;100763.53;5013785;28;45600;-68
2022/09/10 00:16:23;;;;;;;;;3.20;2.60;;;;;17.17;67.74;100768.00;4994055;28;45482;-68
2022/09/10 00:18:50;;;;;;;;;2.75;2.25;;;;;17.29;67.60;100793.69;4972509;28;45440;-70
2022/09/10 00:21:17;;;;;;;;;6.40;2.00;;;;;17.20;67.79;100782.19;5012670;28;45542;-70
2022/09/10 00:23:44;;;;;;;;;3.60;3.40;;;;;17.25;67.90;100792.53;4996634;28;45401;-69
2022/09/10 00:26:24;;;;;;;;;2.80;2.20;;;;;17.26;67.94;100790.59;4975683;28;48384;-69
2022/09/10 00:28:50;;;;;;;;;6.00;3.00;;;;;17.23;67.93;100782.78;4996883;28;45484;-69
2022/09/10 00:31:15;;;;;;;;;2.00;2.00;;;;;17.18;68.04;100789.09;5014892;28;45611;-69
2022/09/10 00:33:41;;;;;;;;;5.75;2.75;;;;;17.10;68.11;100786.75;5017686;28;45428;-70
2022/09/10 00:36:21;;;;;;;;;2.00;2.00;;;;;16.90;68.86;100768.69;5016170;28;45981;-70
2022/09/10 00:38:47;;;;;;;;;5.00;4.20;;;;;16.85;69.08;100766.69;5001123;28;45482;-69
2022/09/10 00:41:13;;;;;;;;;2.00;2.00;;;;;16.92;68.65;100753.47;4998165;28;45392;-69
2022/09/10 00:43:56;;;;;;;;;1.00;1.00;;;;;16.96;68.69;100777.94;5013080;28;45459;-68
2022/09/10 00:46:29;;;;;;;;;2.80;2.40;;;;;16.92;68.89;100775.66;5006182;28;48175;-71
2022/09/10 00:48:56;;;;;;;;;3.00;2.60;;;;;16.94;68.83;100775.41;5017066;28;45445;-69
2022/09/10 00:51:22;;;;;;;;;2.80;2.00;;;;;16.96;68.63;100773.22;4999162;28;45406;-68
2022/09/10 00:53:49;;;;;;;;;2.60;2.00;;;;;17.01;68.71;100769.66;5010862;28;45426;-69
2022/09/10 00:56:18;;;;;;;;;4.60;1.80;;;;;17.01;68.34;100756.66;5000348;28;46388;-68
2022/09/10 00:58:44;;;;;;;;;3.40;2.40;;;;;17.06;68.21;100753.16;4997397;28;45375;-69
2022/09/10 01:01:10;;;;;;;;;3.00;1.80;;;;;17.13;68.29;100769.63;4987409;28;45665;-69
2022/09/10 01:03:35;;;;;;;;;3.50;3.50;;;;;17.10;68.27;100768.19;5013052;28;45271;-69
2022/09/10 01:06:02;;;;;;;;;4.75;3.00;;;;;17.04;68.55;100758.13;5010729;28;45689;-70
2022/09/10 01:08:27;;;;;;;;;3.00;2.80;;;;;17.11;68.45;100782.88;4980781;28;45870;-68
2022/09/10 01:11:00;;;;;;;;;3.25;2.50;;;;;17.09;68.45;100773.97;4973915;28;45336;-68
2022/09/10 01:14:04;;;;;;;;;5.20;3.40;;;;;17.02;68.66;100771.41;5034277;28;45452;-69
2022/09/10 01:17:02;;;;;;;;;5.20;3.60;;;;;16.97;68.87;100763.81;5018581;28;45391;-69
2022/09/10 01:19:37;;;;;;;;;4.20;2.60;;;;;17.00;68.70;100765.22;5004436;28;45385;-69
2022/09/10 01:22:27;;;;;;;;;0.80;0.80;;;;;16.96;69.17;100766.84;5038064;28;45480;-69
2022/09/10 01:25:02;;;;;;;;;5.80;4.20;;;;;16.94;68.96;100758.78;5020197;28;45275;-70
2022/09/10 01:27:34;;;;;;;;;4.20;2.00;;;;;16.93;68.93;100769.00;5003835;28;47731;-69
2022/09/10 01:30:18;;;;;;;;;7.00;3.60;;;;;16.93;69.26;100771.78;5003858;28;45338;-71
2022/09/10 01:32:47;;;;;;;;;2.40;1.40;;;;;17.00;68.75;100771.63;5037798;28;45326;-70
2022/09/10 01:35:18;;;;;;;;;3.00;3.00;;;;;17.03;68.77;100773.09;5019899;28;45371;-69
2022/09/10 01:37:52;;;;;;;;;2.40;2.00;;;;;17.00;68.97;100777.16;5002476;28;46598;-70
2022/09/10 01:40:17;;;;;;;;;3.60;2.00;;;;;17.02;68.78;100774.19;5003062;28;45426;-69
2022/09/10 01:42:44;;;;;;;;;3.25;2.25;;;;;17.00;68.89;100770.78;5018850;28;45523;-70
2022/09/10 01:45:14;;;;;;;;;2.60;2.60;;;;;16.74;68.86;100735.19;5019892;28;45407;-69
2022/09/10 01:47:58;;;;;;;;;3.00;2.00;;;;;17.02;68.81;100777.78;5002471;28;45425;-70
2022/09/10 01:50:28;;;;;;;;;2.60;2.00;;;;;16.97;68.85;100768.53;5018258;28;45277;-69
2022/09/10 01:53:10;;;;;;;;;3.60;3.60;;;;;17.00;68.96;100771.63;4983355;28;45463;-70
2022/09/10 01:55:58;;;;;;;;;2.80;2.00;;;;;17.04;68.84;100774.75;5019401;28;45260;-68
2022/09/10 01:58:34;;;;;;;;;2.20;1.80;;;;;17.03;68.71;100779.44;5018356;28;47847;-68
2022/09/10 02:01:11;;;;;;;;;3.40;2.40;;;;;16.97;68.75;100774.88;5034943;28;45396;-70
2022/09/10 02:03:38;;;;;;;;;2.00;1.00;;;;;17.03;68.71;100785.00;5019350;28;45931;-69
2022/09/10 02:06:04;;;;;;;;;2.60;1.40;;;;;16.94;68.66;100767.09;5002202;28;45494;-69
2022/09/10 02:08:31;;;;;;;;;3.25;2.00;;;;;17.00;68.88;100787.41;5002088;28;45423;-69
2022/09/10 02:10:58;;;;;;;;;3.40;2.00;;;;;17.00;68.81;100782.72;5002548;28;45455;-69
2022/09/10 02:13:24;;;;;;;;;2.00;2.00;;;;;17.03;68.62;100778.63;5018390;28;45488;-67
2022/09/10 02:15:52;;;;;;;;;1.25;1.25;;;;;16.91;68.70;100775.91;5002515;28;45399;-69
2022/09/10 02:18:19;;;;;;;;;6.40;3.00;;;;;16.93;68.97;100782.06;5018807;28;45570;-68
2022/09/10 02:20:46;;;;;;;;;3.00;2.60;;;;;16.94;68.53;100781.81;5035096;28;45625;-69
2022/09/10 02:23:12;;;;;;;;;2.20;2.20;;;;;16.83;68.99;100762.47;5001934;28;45378;-68
2022/09/10 02:25:37;;;;;;;;;2.80;2.80;;;;;16.86;69.15;100776.66;5018464;28;45786;-69
2022/09/10 02:28:04;;;;;;;;;4.00;2.50;;;;;16.64;68.81;100738.66;5034051;28;45354;-69
2022/09/10 02:30:30;;;;;;;;;2.60;2.60;;;;;16.86;68.66;100776.66;5001629;28;45638;-68
2022/09/10 02:32:55;;;;;;;;;2.25;2.25;;;;;16.80;69.07;100783.22;5035959;28;45802;-67
2022/09/10 02:35:21;;;;;;;;;2.25;1.25;;;;;16.76;68.80;100771.81;5018200;28;45495;-70
2022/09/10 02:37:48;;;;;;;;;1.50;1.50;;;;;16.87;68.89;100786.66;4984785;28;48158;-71
2022/09/10 02:40:14;;;;;;;;;3.00;3.00;;;;;16.22;68.90;100665.13;5035681;28;45437;-70
2022/09/10 02:42:40;;;;;;;;;3.25;2.00;;;;;16.96;68.54;100783.47;5018208;28;45559;-72
2022/09/10 02:45:07;;;;;;;;;2.00;1.00;;;;;17.00;68.64;100781.84;5035887;28;45378;-69
2022/09/10 02:47:32;;;;;;;;;3.40;1.60;;;;;16.83;68.94;100773.56;5035649;28;46276;-70
2022/09/10 02:50:00;;;;;;;;;2.00;2.00;;;;;16.83;69.21;100774.41;5035648;28;45396;-68
2022/09/10 02:52:27;;;;;;;;;3.60;1.00;;;;;16.69;68.96;100737.06;5016379;28;45429;-70
2022/09/10 02:54:53;;;;;;;;;4.00;3.00;;;;;16.64;68.93;100737.81;5001737;28;45363;-71
2022/09/10 02:57:19;;;;;;;;;2.00;2.00;;;;;16.96;68.88;100786.25;5017632;28;46229;-68
2022/09/10 02:59:44;;;;;;;;;2.75;1.75;;;;;17.01;68.85;100781.63;5017178;28;45383;-69
2022/09/10 03:02:09;;;;;;;;;5.00;4.00;;;;;16.93;68.63;100785.66;5035659;28;45215;-70
2022/09/10 03:04:36;;;;;;;;;2.00;2.00;;;;;16.93;68.78;100785.66;5035630;28;45394;-70
2022/09/10 03:07:02;;;;;;;;;3.20;2.00;;;;;16.90;68.80;100797.25;5017223;28;45328;-68
2022/09/10 03:09:27;;;;;;;;;4.50;2.00;;;;;16.84;68.98;100787.19;5017605;28;45905;-69
2022/09/10 03:11:53;;;;;;;;;3.25;2.00;;;;;16.78;69.09;100788.19;5017818;28;45442;-70
2022/09/10 03:14:22;;;;;;;;;3.40;3.00;;;;;16.58;69.06;100752.66;5035564;28;46017;-66
2022/09/10 03:16:47;;;;;;;;;5.80;3.60;;;;;16.88;68.85;100793.91;5017870;28;46480;-65
2022/09/10 03:19:13;;;;;;;;;2.00;2.00;;;;;16.92;68.63;100794.25;5035149;28;45267;-70
2022/09/10 03:21:40;;;;;;;;;2.75;2.75;;;;;16.89;68.76;100794.72;5035674;28;45412;-71
2022/09/10 03:24:06;;;;;;;;;2.40;2.40;;;;;16.87;68.86;100785.84;5001440;28;45448;-70
2022/09/10 03:26:31;;;;;;;;;3.50;3.50;;;;;16.73;68.71;100746.53;5017580;28;45587;-68
2022/09/10 03:28:57;;;;;;;;;2.50;2.50;;;;;16.87;68.89;100783.88;5017389;28;45493;-69
2022/09/10 03:31:22;;;;;;;;;3.00;2.00;;;;;17.02;68.88;100801.91;5017512;28;45422;-69
2022/09/10 03:33:48;;;;;;;;;2.75;1.75;;;;;17.00;68.48;100784.63;5035433;28;45483;-69
2022/09/10 03:36:13;;;;;;;;;1.75;1.75;;;;;16.75;68.62;100744.38;5035121;28;46241;-68
2022/09/10 03:38:39;;;;;;;;;3.00;2.00;;;;;16.87;68.08;100767.25;5000876;28;45461;-69
2022/09/10 03:41:05;;;;;;;;;5.50;2.00;;;;;17.01;68.26;100783.53;5035397;28;45310;-69
2022/09/10 03:43:30;;;;;;;;;2.00;2.00;;;;;17.04;68.31;100785.84;5017655;28;45393;-69
2022/09/10 03:45:56;;;;;;;;;4.00;1.75;;;;;16.96;68.49;100784.31;5035282;28;46013;-69
2022/09/10 03:48:22;;;;;;;;;1.50;1.50;;;;;16.89;68.60;100789.19;5034847;28;45404;-71
2022/09/10 03:50:50;;;;;;;;;1.75;1.25;;;;;16.84;68.73;100786.31;5000739;28;45280;-71
2022/09/10 03:53:16;;;;;;;;;2.00;2.00;;;;;16.78;68.89;100782.66;5035278;28;45658;-71
2022/09/10 03:55:43;;;;;;;;;3.20;3.20;;;;;16.89;68.80;100801.13;5034408;28;45494;-71
2022/09/10 03:58:08;;;;;;;;;1.40;1.00;;;;;16.93;68.59;100798.69;5000324;28;45664;-71
2022/09/10 04:00:34;;;;;;;;;4.75;3.50;;;;;16.56;68.64;100747.41;5033184;28;45485;-69
2022/09/10 04:03:00;;;;;;;;;3.00;1.00;;;;;16.61;68.73;100761.34;5000820;28;45703;-68
2022/09/10 04:05:26;;;;;;;;;2.40;2.40;;;;;16.92;68.83;100792.28;5038406;28;46516;-69
2022/09/10 04:07:53;;;;;;;;;2.20;2.00;;;;;16.98;68.42;100792.38;5004393;28;45491;-69
2022/09/10 04:10:20;;;;;;;;;3.80;3.80;;;;;16.90;68.54;100786.16;5020734;28;45408;-71
2022/09/10 04:12:47;;;;;;;;;4.40;4.00;;;;;16.99;68.49;100802.38;5020947;28;45501;-70
2022/09/10 04:15:13;;;;;;;;;3.40;2.20;;;;;16.98;68.36;100798.78;5020351;28;46078;-68
2022/09/10 04:17:39;;;;;;;;;5.40;1.80;;;;;17.01;68.42;100795.47;5037883;28;45471;-69
2022/09/10 04:20:06;;;;;;;;;1.75;0.50;;;;;16.96;68.36;100798.16;5020109;28;45381;-70
2022/09/10 04:22:31;;;;;;;;;3.00;2.40;;;;;16.93;68.53;100807.81;5038262;28;45473;-69
2022/09/10 04:24:58;;;;;;;;;3.75;2.50;;;;;16.97;68.54;100794.28;5003290;28;47378;-68
2022/09/10 04:27:25;;;;;;;;;1.00;1.00;;;;;16.99;68.50;100800.44;5037833;28;45254;-67
2022/09/10 04:29:51;;;;;;;;;3.20;3.20;;;;;16.92;68.66;100800.59;5020473;28;45429;-69
2022/09/10 04:32:16;;;;;;;;;8.00;3.50;;;;;16.83;68.90;100801.28;5020397;28;45671;-70
2022/09/10 04:34:43;;;;;;;;;4.00;2.00;;;;;16.78;68.70;100788.19;5037403;28;45642;-73
2022/09/10 04:37:08;;;;;;;;;2.00;2.00;;;;;16.85;69.06;100799.94;5020267;28;45445;-71
2022/09/10 04:39:34;;;;;;;;;3.50;2.75;;;;;16.83;69.08;100792.97;5019914;28;45416;-69
2022/09/10 04:42:00;;;;;;;;;2.00;2.00;;;;;16.80;69.11;100780.44;5038146;28;45424;-69
2022/09/10 04:44:26;;;;;;;;;4.75;2.50;;;;;16.76;68.70;100774.56;5019670;28;45528;-69
2022/09/10 04:46:52;;;;;;;;;3.40;3.40;;;;;16.87;69.24;100796.94;5020108;28;45355;-71
2022/09/10 04:49:17;;;;;;;;;3.00;2.00;;;;;16.58;68.55;100744.34;5020024;28;45397;-69
2022/09/10 04:51:43;;;;;;;;;1.00;1.00;;;;;16.90;68.93;100800.03;5037609;28;45256;-69
2022/09/10 04:54:12;;;;;;;;;4.75;3.00;;;;;16.92;68.85;100810.88;5037780;28;45829;-69
2022/09/10 04:56:37;;;;;;;;;2.60;2.60;;;;;16.85;68.90;100805.47;5019860;28;45473;-69
2022/09/10 04:59:03;;;;;;;;;3.50;2.00;;;;;16.85;69.09;100805.47;5019932;28;45323;-69
2022/09/10 05:01:30;;;;;;;;;4.00;2.25;;;;;16.72;69.33;100800.28;5019924;28;45229;-69
2022/09/10 05:03:55;;;;;;;;;3.80;2.00;;;;;16.28;68.79;100727.00;5002875;28;46015;-69
2022/09/10 05:06:22;;;;;;;;;2.00;2.00;;;;;16.80;69.27;100802.63;5002932;28;45391;-70
2022/09/10 05:08:48;;;;;;;;;2.20;2.20;;;;;16.86;69.03;100809.94;5020037;28;45451;-71
2022/09/10 05:11:13;;;;;;;;;3.00;2.00;;;;;16.91;68.79;100812.78;5017879;28;45583;-71
2022/09/10 05:13:39;;;;;;;;;3.25;2.00;;;;;16.83;68.77;100801.28;5019013;28;45678;-69
2022/09/10 05:16:05;;;;;;;;;2.00;1.00;;;;;16.96;68.81;100825.88;5018251;28;45218;-69
2022/09/10 05:18:30;;;;;;;;;2.25;2.25;;;;;16.95;68.84;100829.75;5025513;28;45417;-71
2022/09/10 05:20:56;;;;;;;;;1.00;1.00;;;;;16.88;68.98;100827.16;5017223;28;45359;-69
2022/09/10 05:23:21;;;;;;;;;3.00;1.25;;;;;16.86;69.26;100828.50;5015725;28;45263;-70
2022/09/10 05:25:47;;;;;;;;;5.00;2.00;;;;;16.92;68.40;100835.81;4998951;28;45453;-72
2022/09/10 05:28:14;;;;;;;;;3.00;1.75;;;;;16.76;68.97;100807.00;5015794;28;45851;-69
2022/09/10 05:30:40;;;;;;;;;1.40;1.40;;;;;16.96;68.71;100833.38;5031927;28;45453;-71
2022/09/10 05:33:06;;;;;;;;;2.25;2.25;;;;;16.95;68.34;100832.53;5016839;28;45438;-69
2022/09/10 05:35:32;;;;;;;;;4.00;2.75;;;;;16.94;68.34;100828.94;5015541;28;45513;-69
2022/09/10 05:37:59;;;;;;;;;1.80;1.20;;;;;16.94;68.70;100841.94;4999017;28;45400;-70
2022/09/10 05:40:25;;;;;;;;;3.40;3.40;;;;;16.85;68.73;100816.56;5015864;28;45273;-69
2022/09/10 05:42:51;;;;;;;;;4.00;3.00;;;;;17.01;68.64;100838.97;5015334;28;46883;-69
2022/09/10 05:45:18;;;;;;;;;2.40;2.40;;;;;17.02;68.65;100837.94;5016562;28;45406;-70
2022/09/10 05:47:43;;;;;;;;;5.80;3.00;;;;;16.82;68.44;100805.16;5016787;28;45390;-69
2022/09/10 05:50:10;;;;;;;;;1.00;1.00;;;;;17.08;68.15;100853.56;5015446;28;45314;-69
2022/09/10 05:52:35;;;;;;;;;4.00;1.60;;;;;17.10;68.16;100851.38;5015123;28;45669;-69
2022/09/10 05:55:01;;;;;;;;;3.50;2.00;;;;;17.10;68.21;100862.47;5016008;28;45410;-71
2022/09/10 05:57:27;;;;;;;;;4.40;3.00;;;;;17.12;68.23;100859.44;5015535;28;45386;-71
2022/09/10 05:59:52;;;;;;;;;2.00;2.00;;;;;17.12;68.05;100860.28;4998894;28;45375;-69
2022/09/10 06:02:18;;;;;;;;;2.00;2.00;;;;;17.13;67.99;100869.44;5014905;28;45948;-69
2022/09/10 06:04:44;;;;;;;;;2.50;2.00;;;;;17.15;68.43;100870.88;4998323;28;45399;-69
2022/09/10 06:07:09;;;;;;;;;2.75;2.75;;;;;17.11;68.02;100868.84;5015464;28;45359;-69
2022/09/10 06:09:35;;;;;;;;;3.50;3.00;;;;;17.14;68.13;100866.41;5016779;28;45582;-70
2022/09/10 06:12:01;;;;;;;;;3.25;3.25;;;;;17.15;68.61;100873.66;4986517;28;45476;-71
2022/09/10 06:14:26;;;;;;;;;4.00;3.00;;;;;17.11;68.11;100864.16;5014592;28;45703;-69
2022/09/10 06:16:53;;;;;;;;;3.00;2.00;;;;;17.24;67.97;100887.06;5015012;28;45395;-69
2022/09/10 06:19:20;;;;;;;;;4.20;2.20;;;;;17.23;67.91;100890.94;5016221;28;45600;-68
2022/09/10 06:21:48;;;;;;;;;3.00;3.00;;;;;17.24;67.92;100887.06;5014981;28;46006;-69
2022/09/10 06:24:14;;;;;;;;;3.00;2.00;;;;;17.27;67.83;100904.06;5014136;28;45387;-68
2022/09/10 06:26:39;;;;;;;;;2.00;2.00;;;;;17.26;67.76;100894.06;5014107;28;45595;-69
2022/09/10 06:29:05;;;;;;;;;4.25;3.50;;;;;17.18;67.93;100892.53;5014786;28;45356;-65
2022/09/10 06:31:30;;;;;;;;;2.00;2.00;;;;;17.15;67.84;100881.13;5015729;28;46192;-68
2022/09/10 06:33:56;;;;;;;;;6.00;3.00;;;;;16.94;68.13;100841.94;5016021;28;45239;-67
2022/09/10 06:36:21;;;;;;;;;5.00;3.00;;;;;17.28;67.75;100889.09;5015762;28;45220;-66
2022/09/10 06:38:48;;;;;;;;;5.25;2.50;;;;;17.30;67.92;100889.66;5014860;28;45594;-66
2022/09/10 06:41:14;;;;;;;;;3.60;2.00;;;;;17.27;67.58;100890.19;5015107;28;47617;-67
2022/09/10 06:43:41;;;;;;;;;4.00;3.00;;;;;17.31;67.73;100896.06;5014332;28;45352;-63
2022/09/10 06:46:08;;;;;;;;;2.80;2.80;;;;;17.31;67.68;100898.84;5013312;28;45437;-64
2022/09/10 06:48:38;;;;;;;;;4.20;3.40;;;;;17.37;67.52;100900.59;4997319;28;45387;-65
2022/09/10 06:51:03;;;;;;;;;3.00;3.00;;;;;17.39;67.30;100903.94;5014869;28;46227;-66
2022/09/10 06:53:29;;;;;;;;;1.75;1.75;;;;;17.37;67.27;100917.25;5015088;28;45914;-64
2022/09/10 06:55:55;;;;;;;;;3.00;3.00;;;;;17.20;67.18;100872.88;4996296;28;45443;-67
2022/09/10 06:58:23;;;;;;;;;2.40;2.00;;;;;17.51;67.75;100906.66;5013993;28;45436;-65
2022/09/10 07:00:49;;;;;;;;;2.60;1.60;;;;;17.49;67.03;100903.25;5013791;28;45904;-66
2022/09/10 07:03:18;;;;;;;;;2.80;2.00;;;;;17.58;66.85;100906.44;5009330;28;45929;-68
2022/09/10 07:05:44;;;;;;;;;4.40;2.00;;;;;17.58;66.69;100895.34;4977148;28;45366;-63
2022/09/10 07:08:14;;;;;;;;;4.00;3.00;;;;;17.47;66.81;100877.72;5001553;28;45494;-68
2022/09/10 07:10:40;;;;;;;;;4.40;3.60;;;;;17.69;66.53;100916.59;5014360;28;46235;-64
2022/09/10 07:13:06;;;;;;;;;3.50;3.00;;;;;17.70;66.71;100931.31;5007242;28;45228;-64
2022/09/10 07:15:32;;;;;;;;;4.80;2.40;;;;;17.64;66.45;100918.44;5012412;28;45905;-66
2022/09/10 07:17:58;;;;;;;;;3.25;3.25;;;;;17.70;66.58;100934.94;5013655;28;45553;-65
2022/09/10 07:20:24;;;;;;;;;3.60;3.60;;;;;17.71;66.62;100932.97;5030939;28;46134;-64
2022/09/10 07:22:54;;;;;;;;;3.00;3.00;;;;;17.64;66.69;100926.78;4998115;28;45596;-64
2022/09/10 07:25:23;;;;;;;;;2.20;2.20;;;;;17.64;66.76;100937.88;5013995;28;45227;-64
2022/09/10 07:27:49;;;;;;;;;3.40;3.20;;;;;17.16;66.74;100855.06;5014663;28;45280;-65
2022/09/10 07:30:15;;;;;;;;;4.40;3.00;;;;;17.64;66.50;100922.09;5015309;28;46231;-65
2022/09/10 07:32:41;;;;;;;;;3.00;3.00;;;;;17.83;66.25;100941.22;4996100;28;45487;-67
2022/09/10 07:35:07;;;;;;;;;1.40;1.40;;;;;17.88;66.29;100941.31;5008837;28;45552;-67
2022/09/10 07:37:33;;;;;;;;;4.00;3.50;;;;;17.51;66.00;100883.59;5029935;28;45464;-64
2022/09/10 07:39:58;;;;;;;;;6.00;3.20;;;;;17.86;65.97;100938.78;5013151;28;48413;-64
2022/09/10 07:42:24;;;;;;;;;2.00;2.00;;;;;17.78;66.47;100938.38;5015094;28;45402;-64
2022/09/10 07:44:50;;;;;;;;;2.75;2.75;;;;;17.81;66.51;100937.84;5009699;28;45161;-65
2022/09/10 07:47:16;;;;;;;;;2.60;2.40;;;;;17.92;66.40;100941.63;4993162;28;45341;-67
2022/09/10 07:49:43;;;;;;;;;4.25;3.50;;;;;18.01;66.28;100949.25;5003596;28;45564;-67
2022/09/10 07:52:10;;;;;;;;;2.00;2.00;;;;;18.00;66.03;100950.31;5008134;28;45486;-66
2022/09/10 07:54:36;;;;;;;;;2.40;2.00;;;;;17.75;66.21;100928.63;5010917;28;45532;-68
2022/09/10 07:57:03;;;;;;;;;1.20;1.00;;;;;17.72;66.47;100954.13;5010699;28;45505;-71
2022/09/10 07:59:29;;;;;;;;;4.40;3.60;;;;;17.73;66.78;100962.16;4992778;28;46480;-68
2022/09/10 08:01:55;;;;;;;;;4.75;3.00;;;;;17.54;66.70;100935.78;5008249;28;45528;-66
2022/09/10 08:04:22;;;;;;;;;1.60;1.60;;;;;17.78;66.87;100961.44;5010562;28;45449;-68
2022/09/10 08:06:47;;;;;;;;;2.00;1.00;;;;;17.63;66.63;100942.59;4982849;28;45620;-62
2022/09/10 08:09:13;;;;;;;;;5.25;2.25;;;;;17.82;66.73;100967.31;5007729;28;46430;-62
2022/09/10 08:11:39;;;;;;;;;3.00;2.00;;;;;17.72;67.14;100968.00;5010005;28;45814;-60
2022/09/10 08:14:05;;;;;;;;;3.00;3.00;;;;;17.80;66.69;100977.81;4989925;28;45523;-61
2022/09/10 08:16:31;;;;;;;;;5.50;4.75;;;;;17.84;66.75;100968.75;4991043;28;45509;-61
2022/09/10 08:18:57;;;;;;;;;7.00;4.80;;;;;17.63;66.48;100937.06;4989731;28;45881;-62
2022/09/10 08:21:23;;;;;;;;;4.00;4.00;;;;;17.89;66.55;100981.84;5004155;28;45476;-62
2022/09/10 08:23:50;;;;;;;;;4.80;4.20;;;;;17.95;66.23;100978.06;4992359;28;45489;-61
2022/09/10 08:26:16;;;;;;;;;4.20;2.60;;;;;17.91;66.39;100985.19;5008747;28;45418;-62
2022/09/10 08:28:43;;;;;;;;;2.00;2.00;;;;;17.94;66.81;100981.94;5009577;28;46965;-65
2022/09/10 08:31:10;;;;;;;;;5.20;3.00;;;;;17.87;66.70;100968.22;5009933;28;45461;-67
2022/09/10 08:33:37;;;;;;;;;4.60;3.00;;;;;18.01;66.29;100977.03;5007608;28;45754;-62
2022/09/10 08:36:03;;;;;;;;;5.00;5.00;;;;;18.00;66.16;100964.22;5008500;28;45478;-65
2022/09/10 08:38:30;;;;;;;;;4.60;3.00;;;;;18.11;65.88;100989.38;5008690;28;46714;-70
2022/09/10 08:40:56;;;;;;;;;2.80;2.20;;;;;17.99;65.91;100958.94;5010063;28;45439;-73
2022/09/10 08:43:32;;;;;;;;;4.75;3.25;;;;;18.08;65.80;100981.59;4992002;28;45579;-69
2022/09/10 08:45:59;;;;;;;;;5.00;4.00;;;;;18.01;66.11;100987.28;5007456;28;46061;-64
2022/09/10 08:48:24;;;;;;;;;2.60;2.60;;;;;18.05;65.98;100987.59;5008260;28;46205;-63
2022/09/10 08:50:54;;;;;;;;;3.00;3.00;;;;;18.13;66.06;100989.97;5011457;28;45752;-63
2022/09/10 08:53:25;;;;;;;;;2.20;2.20;;;;;18.18;66.01;100987.25;4995295;28;45941;-69
2022/09/10 08:55:57;;;;;;;;;3.40;3.00;;;;;18.26;65.77;100997.91;5013489;28;45517;-68
2022/09/10 08:58:48;;;;;;;;;4.60;3.20;;;;;18.20;65.86;101001.72;4994820;28;47065;-64
2022/09/10 09:01:20;;;;;;;;;4.20;3.00;;;;;18.24;65.84;101002.06;4991581;28;45431;-65
2022/09/10 09:03:53;;;;;;;;;3.80;2.60;;;;;18.19;65.90;101002.00;4992231;28;45625;-65
2022/09/10 09:06:29;;;;;;;;;4.00;4.00;;;;;18.15;65.84;100991.38;4953476;28;45550;-64
2022/09/10 09:08:54;;;;;;;;;3.00;3.00;;;;;18.18;65.97;101001.16;4994489;28;46131;-65
2022/09/10 09:11:28;;;;;;;;;5.00;4.00;;;;;18.19;66.46;101002.81;5011864;28;45509;-67
2022/09/10 09:14:19;;;;;;;;;2.60;2.60;;;;;18.15;66.65;101013.63;4995374;28;45569;-68
2022/09/10 09:17:18;;;;;;;;;3.00;3.00;;;;;18.15;66.67;101018.34;5013278;28;45403;-70
2022/09/10 09:19:57;;;;;;;;;3.00;2.00;;;;;18.06;67.18;101009.59;5012584;28;46575;-65
2022/09/10 09:22:28;;;;;;;;;4.00;2.60;;;;;18.02;67.16;101000.91;5008519;28;45498;-64
2022/09/10 09:24:59;;;;;;;;;5.60;5.60;;;;;18.11;67.07;101014.38;5009544;28;45435;-66
2022/09/10 09:27:26;;;;;;;;;1.20;1.20;;;;;18.03;67.28;101012.84;4992140;28;45408;-66
2022/09/10 09:29:58;;;;;;;;;5.00;5.00;;;;;18.03;67.84;101018.41;5008946;28;45851;-65
2022/09/10 09:32:23;;;;;;;;;3.20;3.20;;;;;18.08;67.64;101026.03;5012566;28;45393;-64
2022/09/10 09:35:15;;;;;;;;;3.50;3.50;;;;;18.07;68.08;101024.31;5001609;28;45456;-64
2022/09/10 09:37:42;;;;;;;;;2.00;2.00;;;;;18.04;67.87;101031.19;4978244;28;45524;-64
2022/09/10 09:40:21;;;;;;;;;4.00;2.00;;;;;17.95;68.13;101030.81;5029052;28;46255;-62
2022/09/10 09:42:55;;;;;;;;;2.20;2.20;;;;;17.81;68.31;101005.31;5032459;28;45459;-66
2022/09/10 09:45:37;;;;;;;;;2.80;2.80;;;;;17.89;68.83;101017.94;5036309;28;45356;-64
2022/09/10 09:48:05;;;;;;;;;4.40;3.40;;;;;17.99;68.89;101034.72;5029355;28;45372;-64
2022/09/10 09:50:33;;;;;;;;;3.40;3.40;;;;;17.86;69.64;101027.63;5036065;28;45580;-63
2022/09/10 09:52:58;;;;;;;;;3.00;3.00;;;;;17.86;69.79;101040.66;5002820;28;45546;-63
2022/09/10 09:55:48;;;;;;;;;2.50;2.50;;;;;17.88;70.05;101047.63;5010728;28;45373;-64
2022/09/10 09:58:38;;;;;;;;;4.00;3.00;;;;;17.80;70.33;101031.41;5003388;28;45568;-62
2022/09/10 10:01:08;;;;;;;;;3.40;3.40;;;;;17.92;70.51;101047.97;4995833;28;46171;-62
2022/09/10 10:03:34;;;;;;;;;4.20;3.00;;;;;18.00;70.13;101049.47;5005008;28;45289;-64
2022/09/10 10:06:07;;;;;;;;;3.75;3.00;;;;;17.87;70.48;101040.41;5014964;28;45748;-66
2022/09/10 10:08:36;;;;;;;;;3.80;3.60;;;;;17.93;69.99;101046.84;5015837;28;45501;-61
2022/09/10 10:11:02;;;;;;;;;4.80;4.00;;;;;18.01;70.03;101056.72;5015357;28;46163;-63
2022/09/10 10:13:37;;;;;;;;;4.75;3.25;;;;;18.06;69.77;101054.03;4997028;28;45466;-62
2022/09/10 10:16:34;;;;;;;;;4.00;4.00;;;;;18.02;69.62;101050.91;5008964;28;45652;-61
2022/09/10 10:19:00;;;;;;;;;4.60;3.80;;;;;18.11;69.68;101056.03;5006244;28;45601;-61
2022/09/10 10:21:32;;;;;;;;;4.75;2.75;;;;;18.10;69.62;101054.38;5015809;28;46064;-66
2022/09/10 10:23:58;;;;;;;;;3.80;3.40;;;;;17.96;69.47;101040.81;5011466;28;45414;-61
2022/09/10 10:26:31;;;;;;;;;2.00;2.00;;;;;18.01;69.76;101053.94;5012427;28;45457;-63
2022/09/10 10:29:16;;;;;;;;;4.20;3.20;;;;;17.95;69.84;101038.28;5030175;28;45619;-65
2022/09/10 10:31:43;;;;;;;;;4.00;3.60;;;;;18.09;70.12;101066.59;5010986;28;46657;-61
2022/09/10 10:34:08;;;;;;;;;4.00;3.60;;;;;18.02;70.12;101058.38;5014963;28;45523;-67
2022/09/10 10:36:58;;;;;;;;;3.50;3.00;;;;;18.05;69.98;101057.91;5015543;28;45484;-66
2022/09/10 10:39:26;;;;;;;;;4.00;4.00;;;;;18.07;70.45;101058.50;5016429;28;45311;-66
2022/09/10 10:42:14;;;;;;;;;4.80;3.80;;;;;18.00;70.94;101057.81;5015917;28;45316;-67
2022/09/10 10:45:09;;;;;;;;;4.60;4.00;;;;;17.82;71.76;101056.16;5029079;28;46534;-65
2022/09/10 10:47:50;;;;;;;;;3.00;3.00;;;;;17.87;72.34;101051.50;5016159;28;45390;-67
2022/09/10 10:50:17;;;;;;;;;4.80;4.80;;;;;17.92;72.22;101050.72;5027930;28;45498;-69
2022/09/10 10:53:10;;;;;;;;;5.20;5.00;;;;;17.97;71.80;101061.06;5006637;28;46534;-65
2022/09/10 10:55:41;;;;;;;;;4.20;4.20;;;;;17.91;72.46;101053.75;4996382;28;45292;-65
2022/09/10 10:58:15;;;;;;;;;5.60;4.20;;;;;17.88;73.01;101055.97;5010677;28;45392;-65
2022/09/10 11:00:50;;;;;;;;;5.00;5.00;;;;;17.42;73.18;100996.94;4990359;28;45287;-64
2022/09/10 11:03:50;;;;;;;;;3.00;3.00;;;;;17.82;74.14;101050.59;4990911;28;46403;-67
2022/09/10 11:06:19;;;;;;;;;5.40;4.00;;;;;17.89;73.43;101045.72;4994735;28;45405;-68
2022/09/10 11:08:56;;;;;;;;;4.40;4.40;;;;;18.01;73.02;101051.16;4994598;28;45374;-66
2022/09/10 11:11:34;;;;;;;;;6.20;5.00;;;;;17.96;72.88;101048.28;4992193;28;45451;-66
2022/09/10 11:14:18;;;;;;;;;4.60;4.60;;;;;18.07;73.12;101046.53;4994421;28;45907;-67
2022/09/10 11:16:50;;;;;;;;;5.80;5.80;;;;;18.10;72.72;101038.53;4995966;28;45361;-65
2022/09/10 11:19:35;;;;;;;;;9.00;7.20;;;;;18.19;72.23;101046.44;4977597;28;45427;-66
2022/09/10 11:22:12;;;;;;;;;4.40;4.40;;;;;18.22;71.85;101035.66;4994798;28;45477;-65
2022/09/10 11:24:59;;;;;;;;;4.20;4.20;;;;;18.28;71.80;101034.63;4995385;28;46617;-65
2022/09/10 11:27:57;;;;;;;;;4.00;4.00;;;;;18.53;71.75;101043.56;4978189;28;45361;-65
2022/09/10 11:30:22;;;;;;;;;5.20;5.20;;;;;18.71;71.15;101036.81;4986484;28;45260;-63
2022/09/10 11:32:51;;;;;;;;;8.50;5.50;;;;;18.96;70.19;101035.44;4994818;28;45237;-65
2022/09/10 11:35:38;;;;;;;;;7.00;6.00;;;;;19.22;69.42;101031.00;4994796;28;46339;-64